sensor_id;sensor_type;location;lat;lon;timestamp;pressure;altitude;pressure_sealevel;temperature;humidity
36254;BME280;22291;52.250;21.228;2022-10-23T00:01:30;100200.13;;;12.54;100.00
36254;BME280;22291;52.250;21.228;2022-10-23T00:04:07;100196.31;;;12.55;100.00
36254;BME280;22291;52.250;21.228;2022-10-23T00:06:34;100201.73;;;12.55;100.00
36254;BME280;22291;52.250;21.228;2022-10-23T00:09:04;100199.81;;;12.56;100.00
36254;BME280;22291;52.250;21.228;2022-10-23T00:11:33;100200.38;;;12.55;100.00
36254;BME280;22291;52.250;21.228;2022-10-23T00:14:03;100202.52;;;12.56;100.00
36254;BME280;22291;52.250;21.228;2022-10-23T00:16:32;100207.38;;;12.56;100.00
36254;BME280;22291;52.250;21.228;2022-10-23T00:19:00;100211.45;;;12.56;100.00
36254;BME280;22291;52.250;21.228;2022-10-23T00:21:27;100208.27;;;12.54;100.00
36254;BME280;22291;52.250;21.228;2022-10-23T00:23:54;100207.48;;;12.54;100.00
36254;BME280;22291;52.250;21.228;2022-10-23T00:26:21;100210.73;;;12.53;100.00
36254;BME280;22291;52.250;21.228;2022-10-23T00:28:50;100207.48;;;12.54;100.00
36254;BME280;22291;52.250;21.228;2022-10-23T00:31:20;100213.70;;;12.54;100.00
36254;BME280;22291;52.250;21.228;2022-10-23T00:33:49;100205.55;;;12.54;100.00
36254;BME280;22291;52.250;21.228;2022-10-23T00:36:18;100211.30;;;12.52;100.00
36254;BME280;22291;52.250;21.228;2022-10-23T00:38:46;100214.02;;;12.52;100.00
36254;BME280;22291;52.250;21.228;2022-10-23T00:41:18;100214.59;;;12.52;100.00
36254;BME280;22291;52.250;21.228;2022-10-23T00:45:05;100224.08;;;12.52;100.00
36254;BME280;22291;52.250;21.228;2022-10-23T00:46:47;100221.12;;;12.51;100.00
36254;BME280;22291;52.250;21.228;2022-10-23T00:49:15;100218.73;;;12.49;100.00
36254;BME280;22291;52.250;21.228;2022-10-23T00:51:52;100222.48;;;12.51;100.00
36254;BME280;22291;52.250;21.228;2022-10-23T00:54:20;100220.90;;;12.50;100.00
36254;BME280;22291;52.250;21.228;2022-10-23T00:56:48;100221.76;;;12.48;100.00
36254;BME280;22291;52.250;21.228;2022-10-23T00:59:15;100224.47;;;12.48;100.00
36254;BME280;22291;52.250;21.228;2022-10-23T01:01:42;100229.11;;;12.47;100.00
36254;BME280;22291;52.250;21.228;2022-10-23T01:04:10;100237.81;;;12.47;100.00
36254;BME280;22291;52.250;21.228;2022-10-23T01:06:52;100233.75;;;12.47;100.00
36254;BME280;22291;52.250;21.228;2022-10-23T01:09:37;100235.11;;;12.47;100.00
36254;BME280;22291;52.250;21.228;2022-10-23T01:21:05;100250.02;;;12.47;100.00
36254;BME280;22291;52.250;21.228;2022-10-23T01:23:50;100253.30;;;12.46;100.00
36254;BME280;22291;52.250;21.228;2022-10-23T01:31:58;100260.87;;;12.47;100.00
36254;BME280;22291;52.250;21.228;2022-10-23T01:37:12;100266.52;;;12.48;100.00
36254;BME280;22291;52.250;21.228;2022-10-23T01:39:44;100268.13;;;12.49;100.00
36254;BME280;22291;52.250;21.228;2022-10-23T01:42:19;100268.91;;;12.49;100.00
36254;BME280;22291;52.250;21.228;2022-10-23T01:44:52;100264.31;;;12.50;100.00
36254;BME280;22291;52.250;21.228;2022-10-23T01:47:26;100269.95;;;12.51;100.00
36254;BME280;22291;52.250;21.228;2022-10-23T01:49:55;100269.95;;;12.51;100.00
36254;BME280;22291;52.250;21.228;2022-10-23T01:52:24;100271.78;;;12.53;100.00
36254;BME280;22291;52.250;21.228;2022-10-23T01:54:53;100265.81;;;12.54;100.00
36254;BME280;22291;52.250;21.228;2022-10-23T01:57:24;100266.60;;;12.54;100.00
36254;BME280;22291;52.250;21.228;2022-10-23T01:59:57;100272.81;;;12.55;100.00
36254;BME280;22291;52.250;21.228;2022-10-23T02:02:28;100274.67;;;12.57;100.00
36254;BME280;22291;52.250;21.228;2022-10-23T02:05:06;100266.53;;;12.57;100.00
36254;BME280;22291;52.250;21.228;2022-10-23T02:07:43;100273.53;;;12.58;100.00
36254;BME280;22291;52.250;21.228;2022-10-23T02:10:12;100277.28;;;12.59;100.00
36254;BME280;22291;52.250;21.228;2022-10-23T02:12:46;100274.00;;;12.60;100.00
36254;BME280;22291;52.250;21.228;2022-10-23T02:15:37;100274.25;;;12.61;100.00
36254;BME280;22291;52.250;21.228;2022-10-23T02:21:11;100282.64;;;12.62;100.00
36254;BME280;22291;52.250;21.228;2022-10-23T02:24:01;100280.14;;;12.63;100.00
36254;BME280;22291;52.250;21.228;2022-10-23T02:26:36;100284.78;;;12.62;100.00
36254;BME280;22291;52.250;21.228;2022-10-23T02:29:09;100285.82;;;12.64;100.00
36254;BME280;22291;52.250;21.228;2022-10-23T02:31:40;100290.46;;;12.63;100.00
36254;BME280;22291;52.250;21.228;2022-10-23T02:34:07;100289.32;;;12.64;100.00
36254;BME280;22291;52.250;21.228;2022-10-23T02:36:36;100292.61;;;12.64;100.00
36254;BME280;22291;52.250;21.228;2022-10-23T02:39:04;100297.46;;;12.64;100.00
36254;BME280;22291;52.250;21.228;2022-10-23T03:01:21;100303.36;;;12.66;100.00
36254;BME280;22291;52.250;21.228;2022-10-23T03:03:58;100300.11;;;12.67;100.00
36254;BME280;22291;52.250;21.228;2022-10-23T03:06:27;100304.17;;;12.67;100.00
36254;BME280;22291;52.250;21.228;2022-10-23T03:09:03;100308.47;;;12.68;100.00
36254;BME280;22291;52.250;21.228;2022-10-23T03:11:29;100314.71;;;12.68;100.00
36254;BME280;22291;52.250;21.228;2022-10-23T03:13:57;100307.11;;;12.68;100.00
36254;BME280;22291;52.250;21.228;2022-10-23T03:16:24;100309.28;;;12.68;100.00
36254;BME280;22291;52.250;21.228;2022-10-23T03:18:53;100307.58;;;12.70;100.00
36254;BME280;22291;52.250;21.228;2022-10-23T03:21:21;100307.58;;;12.70;100.00
36254;BME280;22291;52.250;21.228;2022-10-23T03:23:48;100305.44;;;12.69;100.00
36254;BME280;22291;52.250;21.228;2022-10-23T03:26:15;100299.44;;;12.70;100.00
36254;BME280;22291;52.250;21.228;2022-10-23T03:28:42;100297.29;;;12.69;100.00
36254;BME280;22291;52.250;21.228;2022-10-23T03:31:09;100317.08;;;12.70;100.00
36254;BME280;22291;52.250;21.228;2022-10-23T03:33:37;100304.86;;;12.70;100.00
36254;BME280;22291;52.250;21.228;2022-10-23T03:36:04;100309.03;;;12.67;100.00
36254;BME280;22291;52.250;21.228;2022-10-23T03:38:32;100305.21;;;12.68;100.00
36254;BME280;22291;52.250;21.228;2022-10-23T03:40:59;100303.86;;;12.68;100.00
36254;BME280;22291;52.250;21.228;2022-10-23T03:43:26;100313.36;;;12.68;100.00
36254;BME280;22291;52.250;21.228;2022-10-23T03:45:56;100318.43;;;12.70;100.00
36254;BME280;22291;52.250;21.228;2022-10-23T03:48:24;100317.64;;;12.69;100.00
36254;BME280;22291;52.250;21.228;2022-10-23T03:50:52;100318.43;;;12.70;100.00
36254;BME280;22291;52.250;21.228;2022-10-23T03:53:19;100312.22;;;12.69;100.00
36254;BME280;22291;52.250;21.228;2022-10-23T03:55:46;100322.03;;;12.68;100.00
36254;BME280;22291;52.250;21.228;2022-10-23T03:58:14;100320.14;;;12.68;100.00
36254;BME280;22291;52.250;21.228;2022-10-23T04:00:41;100326.58;;;12.70;100.00
36254;BME280;22291;52.250;21.228;2022-10-23T04:03:08;100319.56;;;12.69;100.00
36254;BME280;22291;52.250;21.228;2022-10-23T04:05:35;100329.29;;;12.70;100.00
36254;BME280;22291;52.250;21.228;2022-10-23T04:08:03;100333.92;;;12.69;100.00
36254;BME280;22291;52.250;21.228;2022-10-23T04:10:31;100325.64;;;12.66;100.00
36254;BME280;22291;52.250;21.228;2022-10-23T04:12:58;100330.81;;;12.65;100.00
36254;BME280;22291;52.250;21.228;2022-10-23T04:15:25;100330.59;;;12.64;100.00
36254;BME280;22291;52.250;21.228;2022-10-23T04:17:52;100335.77;;;12.63;100.00
36254;BME280;22291;52.250;21.228;2022-10-23T04:20:20;100337.23;;;12.60;100.00
36254;BME280;22291;52.250;21.228;2022-10-23T04:22:47;100339.22;;;12.57;100.00
36254;BME280;22291;52.250;21.228;2022-10-23T04:25:14;100339.78;;;12.57;100.00
36254;BME280;22291;52.250;21.228;2022-10-23T04:27:42;100344.71;;;12.55;100.00
36254;BME280;22291;52.250;21.228;2022-10-23T04:30:10;100343.14;;;12.54;100.00
36254;BME280;22291;52.250;21.228;2022-10-23T04:32:39;100351.81;;;12.53;100.00
36254;BME280;22291;52.250;21.228;2022-10-23T04:35:07;100348.09;;;12.51;100.00
36254;BME280;22291;52.250;21.228;2022-10-23T04:37:35;100355.88;;;12.53;100.00
36254;BME280;22291;52.250;21.228;2022-10-23T04:40:04;100357.02;;;12.52;100.00
36254;BME280;22291;52.250;21.228;2022-10-23T04:42:32;100360.30;;;12.51;100.00
36254;BME280;22291;52.250;21.228;2022-10-23T04:44:59;100365.73;;;12.51;100.00
36254;BME280;22291;52.250;21.228;2022-10-23T04:47:26;100360.84;;;12.51;100.00
36254;BME280;22291;52.250;21.228;2022-10-23T04:49:54;100369.80;;;12.51;100.00
36254;BME280;22291;52.250;21.228;2022-10-23T04:52:22;100370.33;;;12.51;100.00
36254;BME280;22291;52.250;21.228;2022-10-23T04:54:49;100377.94;;;12.51;100.00
36254;BME280;22291;52.250;21.228;2022-10-23T04:57:16;100381.50;;;12.49;100.00
36254;BME280;22291;52.250;21.228;2022-10-23T04:59:44;100379.04;;;12.50;100.00
36254;BME280;22291;52.250;21.228;2022-10-23T05:02:11;100385.25;;;12.51;100.00
36254;BME280;22291;52.250;21.228;2022-10-23T05:04:38;100379.83;;;12.51;100.00
36254;BME280;22291;52.250;21.228;2022-10-23T05:07:06;100383.11;;;12.50;100.00
36254;BME280;22291;52.250;21.228;2022-10-23T05:09:33;100389.11;;;12.50;100.00
36254;BME280;22291;52.250;21.228;2022-10-23T05:12:00;100393.70;;;12.49;100.00
36254;BME280;22291;52.250;21.228;2022-10-23T05:14:28;100385.57;;;12.49;100.00
36254;BME280;22291;52.250;21.228;2022-10-23T05:16:58;100391.00;;;12.49;100.00
36254;BME280;22291;52.250;21.228;2022-10-23T05:19:30;100395.57;;;12.51;100.00
36254;BME280;22291;52.250;21.228;2022-10-23T05:22:00;100394.28;;;12.49;100.00
36254;BME280;22291;52.250;21.228;2022-10-23T05:24:28;100392.13;;;12.48;100.00
36254;BME280;22291;52.250;21.228;2022-10-23T05:26:55;100398.09;;;12.48;100.00
36254;BME280;22291;52.250;21.228;2022-10-23T05:29:23;100398.19;;;12.45;100.00
36254;BME280;22291;52.250;21.228;2022-10-23T05:31:53;100397.41;;;12.45;100.00
36254;BME280;22291;52.250;21.228;2022-10-23T05:34:24;100399.61;;;12.43;100.00
36254;BME280;22291;52.250;21.228;2022-10-23T05:36:53;100393.65;;;12.43;100.00
36254;BME280;22291;52.250;21.228;2022-10-23T05:39:21;100393.87;;;12.44;100.00
36254;BME280;22291;52.250;21.228;2022-10-23T05:41:49;100396.90;;;12.43;100.00
36254;BME280;22291;52.250;21.228;2022-10-23T05:44:16;100390.20;;;12.40;100.00
36254;BME280;22291;52.250;21.228;2022-10-23T05:46:44;100400.27;;;12.40;100.00
36254;BME280;22291;52.250;21.228;2022-10-23T05:49:11;100401.62;;;12.40;100.00
36254;BME280;22291;52.250;21.228;2022-10-23T05:51:39;100407.05;;;12.40;100.00
36254;BME280;22291;52.250;21.228;2022-10-23T05:54:07;100405.70;;;12.40;100.00
36254;BME280;22291;52.250;21.228;2022-10-23T05:56:37;100404.09;;;12.39;100.00
36254;BME280;22291;52.250;21.228;2022-10-23T05:59:07;100413.02;;;12.39;100.00
36254;BME280;22291;52.250;21.228;2022-10-23T06:01:35;100414.94;;;12.39;100.00
36254;BME280;22291;52.250;21.228;2022-10-23T06:04:04;100418.44;;;12.39;100.00
36254;BME280;22291;52.250;21.228;2022-10-23T06:06:31;100415.25;;;12.37;100.00
36254;BME280;22291;52.250;21.228;2022-10-23T06:08:58;100411.19;;;12.37;100.00
36254;BME280;22291;52.250;21.228;2022-10-23T06:11:26;100419.32;;;12.37;100.00
36254;BME280;22291;52.250;21.228;2022-10-23T06:13:53;100420.45;;;12.36;100.00
36254;BME280;22291;52.250;21.228;2022-10-23T06:16:22;100425.88;;;12.36;100.00
36254;BME280;22291;52.250;21.228;2022-10-23T06:18:52;100425.88;;;12.36;100.00
36254;BME280;22291;52.250;21.228;2022-10-23T06:21:20;100416.92;;;12.36;100.00
36254;BME280;22291;52.250;21.228;2022-10-23T06:23:47;100419.32;;;12.37;100.00
36254;BME280;22291;52.250;21.228;2022-10-23T06:26:16;100421.72;;;12.39;100.00
36254;BME280;22291;52.250;21.228;2022-10-23T06:28:44;100426.04;;;12.40;100.00
36254;BME280;22291;52.250;21.228;2022-10-23T06:31:14;100431.15;;;12.41;100.00
36254;BME280;22291;52.250;21.228;2022-10-23T06:33:41;100434.34;;;12.43;100.00
36254;BME280;22291;52.250;21.228;2022-10-23T06:36:09;100437.53;;;12.45;100.00
36254;BME280;22291;52.250;21.228;2022-10-23T06:38:37;100434.88;;;12.43;100.00
36254;BME280;22291;52.250;21.228;2022-10-23T06:41:20;100439.77;;;12.43;100.00
36254;BME280;22291;52.250;21.228;2022-10-23T06:43:49;100439.98;;;12.44;100.00
36254;BME280;22291;52.250;21.228;2022-10-23T06:46:17;100445.41;;;12.44;100.00
36254;BME280;22291;52.250;21.228;2022-10-23T06:48:45;100447.59;;;12.45;100.00
36254;BME280;22291;52.250;21.228;2022-10-23T06:51:15;100452.77;;;12.44;100.00
36254;BME280;22291;52.250;21.228;2022-10-23T06:53:44;100451.66;;;12.45;100.00
36254;BME280;22291;52.250;21.228;2022-10-23T06:56:11;100457.08;;;12.45;100.00
36254;BME280;22291;52.250;21.228;2022-10-23T06:58:40;100463.36;;;12.43;100.00
36254;BME280;22291;52.250;21.228;2022-10-23T07:01:09;100471.59;;;12.40;100.00
36254;BME280;22291;52.250;21.228;2022-10-23T07:03:38;100471.42;;;12.37;100.00
36254;BME280;22291;52.250;21.228;2022-10-23T07:06:08;100472.30;;;12.35;100.00
36254;BME280;22291;52.250;21.228;2022-10-23T07:08:37;100468.77;;;12.34;100.00
36254;BME280;22291;52.250;21.228;2022-10-23T07:11:10;100467.58;;;12.38;100.00
36254;BME280;22291;52.250;21.228;2022-10-23T07:13:38;100474.30;;;12.40;100.00
36254;BME280;22291;52.250;21.228;2022-10-23T07:16:18;100483.39;;;12.44;100.00
36254;BME280;22291;52.250;21.228;2022-10-23T07:18:48;100486.05;;;12.47;100.00
36254;BME280;22291;52.250;21.228;2022-10-23T07:21:18;100483.80;;;12.49;100.00
36254;BME280;22291;52.250;21.228;2022-10-23T07:23:46;100479.67;;;12.51;100.00
36254;BME280;22291;52.250;21.228;2022-10-23T07:26:15;100475.03;;;12.52;100.00
36254;BME280;22291;52.250;21.228;2022-10-23T07:28:45;100475.98;;;12.56;100.00
36254;BME280;22291;52.250;21.228;2022-10-23T07:31:16;100475.52;;;12.63;100.00
36254;BME280;22291;52.250;21.228;2022-10-23T07:33:46;100482.24;;;12.74;100.00
36254;BME280;22291;52.250;21.228;2022-10-23T07:36:19;100476.97;;;12.78;100.00
36254;BME280;22291;52.250;21.228;2022-10-23T07:38:46;100480.72;;;12.88;100.00
36254;BME280;22291;52.250;21.228;2022-10-23T07:41:15;100481.60;;;12.95;100.00
36254;BME280;22291;52.250;21.228;2022-10-23T07:43:43;100489.42;;;13.05;100.00
36254;BME280;22291;52.250;21.228;2022-10-23T07:46:13;100486.45;;;13.13;100.00
36254;BME280;22291;52.250;21.228;2022-10-23T07:48:44;100483.50;;;13.20;100.00
36254;BME280;22291;52.250;21.228;2022-10-23T07:51:18;100488.61;;;13.22;100.00
36254;BME280;22291;52.250;21.228;2022-10-23T07:53:46;100483.96;;;13.22;100.00
36254;BME280;22291;52.250;21.228;2022-10-23T07:56:17;100474.92;;;13.24;100.00
36254;BME280;22291;52.250;21.228;2022-10-23T07:58:52;100480.70;;;13.23;100.00
36254;BME280;22291;52.250;21.228;2022-10-23T08:04:04;100470.78;;;13.27;100.00
36254;BME280;22291;52.250;21.228;2022-10-23T08:06:32;100468.97;;;13.34;100.00
36254;BME280;22291;52.250;21.228;2022-10-23T08:09:02;100477.66;;;13.42;100.00
36254;BME280;22291;52.250;21.228;2022-10-23T08:11:30;100473.41;;;13.47;100.00
36254;BME280;22291;52.250;21.228;2022-10-23T08:14:00;100471.88;;;13.52;100.00
36254;BME280;22291;52.250;21.228;2022-10-23T08:16:35;100465.70;;;13.58;100.00
36254;BME280;22291;52.250;21.228;2022-10-23T08:19:06;100468.56;;;13.61;100.00
36254;BME280;22291;52.250;21.228;2022-10-23T08:21:35;100475.82;;;13.63;100.00
36254;BME280;22291;52.250;21.228;2022-10-23T08:24:04;100465.77;;;13.64;99.49
36254;BME280;22291;52.250;21.228;2022-10-23T08:26:33;100454.80;;;13.67;99.57
36254;BME280;22291;52.250;21.228;2022-10-23T08:29:00;100465.72;;;13.96;100.00
36254;BME280;22291;52.250;21.228;2022-10-23T08:31:28;100471.14;;;14.11;100.00
36254;BME280;22291;52.250;21.228;2022-10-23T08:33:55;100472.17;;;14.13;100.00
36254;BME280;22291;52.250;21.228;2022-10-23T08:36:25;100472.09;;;14.15;99.77
36254;BME280;22291;52.250;21.228;2022-10-23T08:38:56;100460.23;;;14.20;99.62
36254;BME280;22291;52.250;21.228;2022-10-23T08:41:46;100475.20;;;14.20;98.40
36254;BME280;22291;52.250;21.228;2022-10-23T08:47:38;100473.08;;;14.26;98.86
36254;BME280;22291;52.250;21.228;2022-10-23T08:52:25;100483.82;;;14.22;96.95
36254;BME280;22291;52.250;21.228;2022-10-23T08:57:44;100488.59;;;14.10;96.70
36254;BME280;22291;52.250;21.228;2022-10-23T09:00:15;100500.38;;;14.08;96.65
36254;BME280;22291;52.250;21.228;2022-10-23T09:02:51;100496.05;;;14.07;97.02
36254;BME280;22291;52.250;21.228;2022-10-23T09:05:26;100488.78;;;14.05;97.06
36254;BME280;22291;52.250;21.228;2022-10-23T09:11:03;100491.97;;;14.07;97.17
36254;BME280;22291;52.250;21.228;2022-10-23T09:22:45;100494.34;;;13.94;96.66
36254;BME280;22291;52.250;21.228;2022-10-23T09:25:19;100487.73;;;13.89;96.50
36254;BME280;22291;52.250;21.228;2022-10-23T09:27:52;100489.09;;;13.89;97.05
36254;BME280;22291;52.250;21.228;2022-10-23T09:30:38;100488.77;;;13.90;97.21
36254;BME280;22291;52.250;21.228;2022-10-23T09:35:57;100491.63;;;13.94;97.49
36254;BME280;22291;52.250;21.228;2022-10-23T09:38:32;100492.59;;;13.98;97.96
36254;BME280;22291;52.250;21.228;2022-10-23T09:43:43;100495.59;;;14.05;97.80
36254;BME280;22291;52.250;21.228;2022-10-23T09:46:12;100489.25;;;14.07;97.55
36254;BME280;22291;52.250;21.228;2022-10-23T09:48:40;100493.25;;;14.10;97.57
36254;BME280;22291;52.250;21.228;2022-10-23T09:51:18;100495.92;;;14.18;98.11
36254;BME280;22291;52.250;21.228;2022-10-23T09:53:58;100490.38;;;14.21;97.72
36254;BME280;22291;52.250;21.228;2022-10-23T09:56:38;100490.89;;;14.29;97.88
36254;BME280;22291;52.250;21.228;2022-10-23T10:01:52;100495.25;;;14.36;97.25
36254;BME280;22291;52.250;21.228;2022-10-23T10:04:33;100483.33;;;14.35;96.91
36254;BME280;22291;52.250;21.228;2022-10-23T10:07:05;100483.25;;;14.37;97.00
36254;BME280;22291;52.250;21.228;2022-10-23T10:09:40;100475.22;;;14.41;97.37
36254;BME280;22291;52.250;21.228;2022-10-23T10:15:29;100473.47;;;14.51;97.55
36254;BME280;22291;52.250;21.228;2022-10-23T10:18:12;100475.75;;;14.55;97.28
36254;BME280;22291;52.250;21.228;2022-10-23T10:29:34;100469.98;;;14.57;96.56
36254;BME280;22291;52.250;21.228;2022-10-23T10:38:09;100472.82;;;14.69;97.08
36254;BME280;22291;52.250;21.228;2022-10-23T10:40:47;100482.69;;;14.74;97.03
36254;BME280;22291;52.250;21.228;2022-10-23T10:44:22;100477.37;;;14.78;96.79
36254;BME280;22291;52.250;21.228;2022-10-23T10:46:41;100479.55;;;14.78;96.00
36254;BME280;22291;52.250;21.228;2022-10-23T10:49:40;100474.44;;;14.77;95.69
36254;BME280;22291;52.250;21.228;2022-10-23T11:00:43;100459.92;;;14.79;95.74
36254;BME280;22291;52.250;21.228;2022-10-23T11:06:03;100455.47;;;14.74;95.44
36254;BME280;22291;52.250;21.228;2022-10-23T11:08:39;100459.09;;;14.72;95.50
36254;BME280;22291;52.250;21.228;2022-10-23T11:11:16;100456.48;;;14.69;95.83
36254;BME280;22291;52.250;21.228;2022-10-23T11:13:48;100456.12;;;14.71;95.92
36254;BME280;22291;52.250;21.228;2022-10-23T11:16:31;100447.74;;;14.70;95.86
36254;BME280;22291;52.250;21.228;2022-10-23T11:38:35;100448.25;;;14.84;95.85
36254;BME280;22291;52.250;21.228;2022-10-23T11:41:15;100458.69;;;14.82;94.46
36254;BME280;22291;52.250;21.228;2022-10-23T11:43:53;100445.27;;;14.77;94.38
36254;BME280;22291;52.250;21.228;2022-10-23T11:49:17;100440.41;;;14.77;94.40
36254;BME280;22291;52.250;21.228;2022-10-23T11:51:38;100444.70;;;14.78;93.56
36254;BME280;22291;52.250;21.228;2022-10-23T11:56:55;100443.55;;;14.72;93.01
36254;BME280;22291;52.250;21.228;2022-10-23T12:02:35;100435.62;;;14.73;93.22
36254;BME280;22291;52.250;21.228;2022-10-23T12:05:06;100433.61;;;14.83;93.61
36254;BME280;22291;52.250;21.228;2022-10-23T12:08:01;100426.53;;;14.97;94.07
36254;BME280;22291;52.250;21.228;2022-10-23T12:10:29;100431.80;;;15.14;93.76
36254;BME280;22291;52.250;21.228;2022-10-23T12:13:04;100431.71;;;15.23;94.23
36254;BME280;22291;52.250;21.228;2022-10-23T12:15:34;100422.08;;;15.31;93.31
36254;BME280;22291;52.250;21.228;2022-10-23T12:23:28;100406.98;;;15.40;91.49
36254;BME280;22291;52.250;21.228;2022-10-23T12:26:41;100411.45;;;15.51;92.14
36254;BME280;22291;52.250;21.228;2022-10-23T12:29:23;100405.31;;;15.60;91.54
36254;BME280;22291;52.250;21.228;2022-10-23T12:38:23;100413.94;;;15.75;89.93
36254;BME280;22291;52.250;21.228;2022-10-23T12:41:00;100408.07;;;15.79;90.33
36254;BME280;22291;52.250;21.228;2022-10-23T12:43:32;100414.21;;;15.82;89.98
36254;BME280;22291;52.250;21.228;2022-10-23T12:46:21;100415.89;;;15.86;90.33
36254;BME280;22291;52.250;21.228;2022-10-23T12:49:19;100408.97;;;15.83;89.33
36254;BME280;22291;52.250;21.228;2022-10-23T12:52:00;100412.03;;;15.81;88.69
36254;BME280;22291;52.250;21.228;2022-10-23T12:54:31;100408.65;;;15.78;88.83
36254;BME280;22291;52.250;21.228;2022-10-23T12:56:59;100408.75;;;15.76;88.66
36254;BME280;22291;52.250;21.228;2022-10-23T12:59:35;100410.42;;;15.74;88.60
36254;BME280;22291;52.250;21.228;2022-10-23T13:04:49;100405.77;;;15.68;88.67
36254;BME280;22291;52.250;21.228;2022-10-23T13:07:22;100403.14;;;15.66;88.79
36254;BME280;22291;52.250;21.228;2022-10-23T13:09:51;100406.00;;;15.63;88.49
36254;BME280;22291;52.250;21.228;2022-10-23T13:12:24;100409.40;;;15.60;88.62
36254;BME280;22291;52.250;21.228;2022-10-23T13:15:00;100415.77;;;15.58;88.72
36254;BME280;22291;52.250;21.228;2022-10-23T13:18:14;100413.27;;;15.53;88.47
36254;BME280;22291;52.250;21.228;2022-10-23T13:20:24;100418.27;;;15.51;88.67
36254;BME280;22291;52.250;21.228;2022-10-23T13:23:17;100410.76;;;15.48;88.21
36254;BME280;22291;52.250;21.228;2022-10-23T13:26:02;100421.42;;;15.47;88.38
36254;BME280;22291;52.250;21.228;2022-10-23T13:28:42;100423.70;;;15.45;88.60
36254;BME280;22291;52.250;21.228;2022-10-23T13:34:13;100424.14;;;15.47;88.59
36254;BME280;22291;52.250;21.228;2022-10-23T13:36:34;100427.33;;;15.43;88.30
36254;BME280;22291;52.250;21.228;2022-10-23T13:39:12;100417.77;;;15.37;88.19
36254;BME280;22291;52.250;21.228;2022-10-23T13:41:44;100417.75;;;15.30;88.20
36254;BME280;22291;52.250;21.228;2022-10-23T13:44:14;100422.41;;;15.30;88.29
36254;BME280;22291;52.250;21.228;2022-10-23T13:46:43;100418.78;;;15.26;88.39
36254;BME280;22291;52.250;21.228;2022-10-23T13:49:11;100428.86;;;15.25;88.25
36254;BME280;22291;52.250;21.228;2022-10-23T13:51:41;100423.87;;;15.21;88.13
36254;BME280;22291;52.250;21.228;2022-10-23T13:54:24;100424.20;;;15.20;88.29
36254;BME280;22291;52.250;21.228;2022-10-23T13:56:54;100425.69;;;15.17;88.27
36254;BME280;22291;52.250;21.228;2022-10-23T13:59:23;100423.63;;;15.14;88.30
36254;BME280;22291;52.250;21.228;2022-10-23T14:01:50;100422.60;;;15.12;88.50
36254;BME280;22291;52.250;21.228;2022-10-23T14:04:18;100420.45;;;15.12;88.71
36254;BME280;22291;52.250;21.228;2022-10-23T14:06:47;100422.94;;;15.11;88.73
36254;BME280;22291;52.250;21.228;2022-10-23T14:09:16;100421.81;;;15.12;88.70
36254;BME280;22291;52.250;21.228;2022-10-23T14:11:44;100415.55;;;15.11;88.83
36254;BME280;22291;52.250;21.228;2022-10-23T14:14:12;100416.58;;;15.13;89.08
36254;BME280;22291;52.250;21.228;2022-10-23T14:16:39;100421.45;;;15.13;88.95
36254;BME280;22291;52.250;21.228;2022-10-23T14:19:07;100420.09;;;15.13;88.93
36254;BME280;22291;52.250;21.228;2022-10-23T14:21:35;100421.00;;;15.11;88.88
36254;BME280;22291;52.250;21.228;2022-10-23T14:24:05;100414.52;;;15.10;89.08
36254;BME280;22291;52.250;21.228;2022-10-23T14:26:32;100413.16;;;15.10;89.13
36254;BME280;22291;52.250;21.228;2022-10-23T14:29:00;100415.67;;;15.09;89.06
36254;BME280;22291;52.250;21.228;2022-10-23T14:31:27;100421.67;;;15.08;89.00
36254;BME280;22291;52.250;21.228;2022-10-23T14:33:57;100416.34;;;15.06;89.12
36254;BME280;22291;52.250;21.228;2022-10-23T14:36:27;100426.20;;;15.04;89.14
36254;BME280;22291;52.250;21.228;2022-10-23T14:38:56;100427.33;;;15.03;89.03
36254;BME280;22291;52.250;21.228;2022-10-23T14:41:25;100427.33;;;14.97;88.81
36254;BME280;22291;52.250;21.228;2022-10-23T14:43:53;100429.34;;;14.94;88.89
36254;BME280;22291;52.250;21.228;2022-10-23T14:46:22;100428.89;;;14.92;89.02
36254;BME280;22291;52.250;21.228;2022-10-23T14:48:51;100430.34;;;14.89;89.05
36254;BME280;22291;52.250;21.228;2022-10-23T14:51:23;100419.78;;;14.88;89.13
36254;BME280;22291;52.250;21.228;2022-10-23T14:54:01;100425.11;;;14.84;89.16
36254;BME280;22291;52.250;21.228;2022-10-23T14:56:29;100422.72;;;14.83;89.28
36254;BME280;22291;52.250;21.228;2022-10-23T14:58:59;100423.41;;;14.80;89.26
36254;BME280;22291;52.250;21.228;2022-10-23T15:01:36;100423.25;;;14.76;89.36
36254;BME280;22291;52.250;21.228;2022-10-23T15:04:03;100422.25;;;14.74;89.40
36254;BME280;22291;52.250;21.228;2022-10-23T15:06:32;100417.14;;;14.73;89.43
36254;BME280;22291;52.250;21.228;2022-10-23T15:09:01;100414.50;;;14.70;89.33
36254;BME280;22291;52.250;21.228;2022-10-23T15:11:29;100409.50;;;14.66;89.25
36254;BME280;22291;52.250;21.228;2022-10-23T15:13:58;100414.95;;;14.66;89.45
36254;BME280;22291;52.250;21.228;2022-10-23T15:16:26;100405.63;;;14.61;89.37
36254;BME280;22291;52.250;21.228;2022-10-23T15:18:54;100409.80;;;14.59;89.30
36254;BME280;22291;52.250;21.228;2022-10-23T15:21:22;100412.61;;;14.56;89.23